sensor_id;sensor_type;location;lat;lon;timestamp;P1;durP1;ratioP1;P2;durP2;ratioP2
57057;SDS011;55017;52.848;6.748;2023-04-09T00:02:11;167.63;;;157.90;;
57057;SDS011;55017;52.848;6.748;2023-04-09T00:04:37;165.40;;;156.23;;
57057;SDS011;55017;52.848;6.748;2023-04-09T00:07:03;166.88;;;157.55;;
57057;SDS011;55017;52.848;6.748;2023-04-09T00:09:29;161.85;;;153.25;;
57057;SDS011;55017;52.848;6.748;2023-04-09T00:11:56;163.43;;;154.23;;
57057;SDS011;55017;52.848;6.748;2023-04-09T00:14:23;160.57;;;151.57;;
57057;SDS011;55017;52.848;6.748;2023-04-09T00:16:49;161.32;;;152.65;;
57057;SDS011;55017;52.848;6.748;2023-04-09T00:19:15;161.88;;;152.98;;
57057;SDS011;55017;52.848;6.748;2023-04-09T00:21:41;158.95;;;150.40;;
57057;SDS011;55017;52.848;6.748;2023-04-09T00:24:07;158.47;;;150.20;;
57057;SDS011;55017;52.848;6.748;2023-04-09T00:26:33;157.13;;;148.65;;
57057;SDS011;55017;52.848;6.748;2023-04-09T00:28:59;154.45;;;146.50;;
57057;SDS011;55017;52.848;6.748;2023-04-09T00:31:25;162.10;;;153.40;;
57057;SDS011;55017;52.848;6.748;2023-04-09T00:33:51;154.80;;;146.70;;
57057;SDS011;55017;52.848;6.748;2023-04-09T00:36:17;156.10;;;148.07;;
57057;SDS011;55017;52.848;6.748;2023-04-09T00:38:43;157.32;;;148.68;;
57057;SDS011;55017;52.848;6.748;2023-04-09T00:41:10;160.77;;;152.48;;
57057;SDS011;55017;52.848;6.748;2023-04-09T00:43:36;156.75;;;148.18;;
57057;SDS011;55017;52.848;6.748;2023-04-09T00:46:02;157.82;;;149.48;;
57057;SDS011;55017;52.848;6.748;2023-04-09T00:48:29;158.20;;;149.95;;
57057;SDS011;55017;52.848;6.748;2023-04-09T00:50:55;162.63;;;153.68;;
57057;SDS011;55017;52.848;6.748;2023-04-09T00:53:21;161.40;;;152.57;;
57057;SDS011;55017;52.848;6.748;2023-04-09T00:55:47;158.65;;;150.15;;
57057;SDS011;55017;52.848;6.748;2023-04-09T00:58:13;164.43;;;155.23;;
57057;SDS011;55017;52.848;6.748;2023-04-09T01:00:40;163.80;;;154.63;;
57057;SDS011;55017;52.848;6.748;2023-04-09T01:03:06;159.73;;;150.98;;
57057;SDS011;55017;52.848;6.748;2023-04-09T01:08:17;162.52;;;153.38;;
57057;SDS011;55017;52.848;6.748;2023-04-09T01:15:51;160.63;;;151.90;;
57057;SDS011;55017;52.848;6.748;2023-04-09T01:18:23;161.48;;;152.52;;
57057;SDS011;55017;52.848;6.748;2023-04-09T01:20:55;162.40;;;153.90;;
57057;SDS011;55017;52.848;6.748;2023-04-09T01:26:09;162.30;;;153.55;;
57057;SDS011;55017;52.848;6.748;2023-04-09T01:28:43;160.73;;;152.13;;
57057;SDS011;55017;52.848;6.748;2023-04-09T01:31:10;163.82;;;154.95;;
57057;SDS011;55017;52.848;6.748;2023-04-09T01:33:37;160.75;;;152.05;;
57057;SDS011;55017;52.848;6.748;2023-04-09T01:36:04;158.35;;;149.77;;
57057;SDS011;55017;52.848;6.748;2023-04-09T01:38:31;161.48;;;152.73;;
57057;SDS011;55017;52.848;6.748;2023-04-09T01:40:58;154.18;;;145.98;;
57057;SDS011;55017;52.848;6.748;2023-04-09T01:43:24;160.75;;;152.00;;
57057;SDS011;55017;52.848;6.748;2023-04-09T01:45:52;158.80;;;150.18;;
57057;SDS011;55017;52.848;6.748;2023-04-09T01:48:18;158.68;;;150.20;;
57057;SDS011;55017;52.848;6.748;2023-04-09T01:50:45;164.10;;;155.27;;
57057;SDS011;55017;52.848;6.748;2023-04-09T01:53:11;160.98;;;152.00;;
57057;SDS011;55017;52.848;6.748;2023-04-09T01:55:37;155.85;;;147.55;;
57057;SDS011;55017;52.848;6.748;2023-04-09T01:58:03;160.23;;;151.85;;
57057;SDS011;55017;52.848;6.748;2023-04-09T02:00:30;161.48;;;152.40;;
57057;SDS011;55017;52.848;6.748;2023-04-09T02:03:06;167.18;;;157.98;;
57057;SDS011;55017;52.848;6.748;2023-04-09T02:05:34;162.50;;;153.93;;
57057;SDS011;55017;52.848;6.748;2023-04-09T02:08:02;162.85;;;154.18;;
57057;SDS011;55017;52.848;6.748;2023-04-09T02:10:29;165.13;;;156.27;;
57057;SDS011;55017;52.848;6.748;2023-04-09T02:12:56;165.93;;;156.80;;
57057;SDS011;55017;52.848;6.748;2023-04-09T02:15:22;159.77;;;150.98;;
57057;SDS011;55017;52.848;6.748;2023-04-09T02:17:49;164.80;;;155.80;;
57057;SDS011;55017;52.848;6.748;2023-04-09T02:20:16;160.82;;;152.27;;
57057;SDS011;55017;52.848;6.748;2023-04-09T02:22:43;164.05;;;154.90;;
57057;SDS011;55017;52.848;6.748;2023-04-09T02:25:09;163.63;;;154.75;;
57057;SDS011;55017;52.848;6.748;2023-04-09T02:27:35;161.18;;;152.68;;
57057;SDS011;55017;52.848;6.748;2023-04-09T02:30:01;162.20;;;153.60;;
57057;SDS011;55017;52.848;6.748;2023-04-09T02:32:28;162.35;;;153.85;;
57057;SDS011;55017;52.848;6.748;2023-04-09T02:34:54;160.50;;;151.70;;
57057;SDS011;55017;52.848;6.748;2023-04-09T02:37:20;163.18;;;154.43;;
57057;SDS011;55017;52.848;6.748;2023-04-09T02:39:46;166.75;;;157.43;;
57057;SDS011;55017;52.848;6.748;2023-04-09T02:42:12;161.93;;;153.23;;
57057;SDS011;55017;52.848;6.748;2023-04-09T02:44:38;159.77;;;151.15;;
57057;SDS011;55017;52.848;6.748;2023-04-09T02:47:04;162.82;;;154.15;;
57057;SDS011;55017;52.848;6.748;2023-04-09T02:49:30;167.82;;;158.95;;
57057;SDS011;55017;52.848;6.748;2023-04-09T02:51:56;162.52;;;154.27;;
57057;SDS011;55017;52.848;6.748;2023-04-09T02:54:22;162.70;;;153.82;;
57057;SDS011;55017;52.848;6.748;2023-04-09T02:56:48;163.48;;;154.75;;
57057;SDS011;55017;52.848;6.748;2023-04-09T02:59:14;158.50;;;149.95;;
57057;SDS011;55017;52.848;6.748;2023-04-09T03:01:40;158.98;;;150.02;;
57057;SDS011;55017;52.848;6.748;2023-04-09T03:04:06;165.75;;;156.68;;
57057;SDS011;55017;52.848;6.748;2023-04-09T03:06:32;159.40;;;150.77;;
57057;SDS011;55017;52.848;6.748;2023-04-09T03:08:58;162.63;;;153.85;;
57057;SDS011;55017;52.848;6.748;2023-04-09T03:11:24;162.20;;;153.45;;
57057;SDS011;55017;52.848;6.748;2023-04-09T03:13:50;161.35;;;152.48;;
57057;SDS011;55017;52.848;6.748;2023-04-09T03:16:16;164.50;;;155.73;;
57057;SDS011;55017;52.848;6.748;2023-04-09T03:18:42;162.95;;;153.70;;
57057;SDS011;55017;52.848;6.748;2023-04-09T03:21:08;167.55;;;158.27;;
57057;SDS011;55017;52.848;6.748;2023-04-09T03:23:34;163.00;;;153.85;;
57057;SDS011;55017;52.848;6.748;2023-04-09T03:26:01;162.75;;;153.75;;
57057;SDS011;55017;52.848;6.748;2023-04-09T03:28:28;160.32;;;151.32;;
57057;SDS011;55017;52.848;6.748;2023-04-09T03:30:54;162.95;;;153.80;;
57057;SDS011;55017;52.848;6.748;2023-04-09T03:33:20;168.38;;;159.35;;
57057;SDS011;55017;52.848;6.748;2023-04-09T03:35:46;165.73;;;156.50;;
57057;SDS011;55017;52.848;6.748;2023-04-09T03:38:12;162.13;;;153.50;;
57057;SDS011;55017;52.848;6.748;2023-04-09T03:40:37;162.95;;;154.50;;
57057;SDS011;55017;52.848;6.748;2023-04-09T03:43:03;162.70;;;154.20;;
57057;SDS011;55017;52.848;6.748;2023-04-09T03:45:29;160.27;;;151.57;;
57057;SDS011;55017;52.848;6.748;2023-04-09T03:47:55;165.38;;;156.27;;
57057;SDS011;55017;52.848;6.748;2023-04-09T03:50:21;163.85;;;154.70;;
57057;SDS011;55017;52.848;6.748;2023-04-09T03:52:47;159.90;;;151.27;;
57057;SDS011;55017;52.848;6.748;2023-04-09T03:55:13;162.45;;;153.52;;
57057;SDS011;55017;52.848;6.748;2023-04-09T03:57:40;164.00;;;154.70;;
57057;SDS011;55017;52.848;6.748;2023-04-09T04:00:06;163.27;;;153.88;;
57057;SDS011;55017;52.848;6.748;2023-04-09T04:02:32;164.75;;;155.63;;
57057;SDS011;55017;52.848;6.748;2023-04-09T04:04:58;165.93;;;156.95;;
57057;SDS011;55017;52.848;6.748;2023-04-09T04:07:24;165.15;;;156.15;;
57057;SDS011;55017;52.848;6.748;2023-04-09T04:09:51;163.15;;;154.15;;
57057;SDS011;55017;52.848;6.748;2023-04-09T04:12:17;164.95;;;156.13;;
57057;SDS011;55017;52.848;6.748;2023-04-09T04:14:43;165.07;;;155.95;;
57057;SDS011;55017;52.848;6.748;2023-04-09T04:17:09;166.10;;;156.88;;
57057;SDS011;55017;52.848;6.748;2023-04-09T04:19:35;166.88;;;157.98;;
57057;SDS011;55017;52.848;6.748;2023-04-09T04:22:01;160.32;;;151.80;;
57057;SDS011;55017;52.848;6.748;2023-04-09T04:24:27;162.50;;;153.52;;
57057;SDS011;55017;52.848;6.748;2023-04-09T04:26:53;160.32;;;151.50;;
57057;SDS011;55017;52.848;6.748;2023-04-09T04:29:20;164.02;;;154.93;;
57057;SDS011;55017;52.848;6.748;2023-04-09T04:31:46;168.20;;;158.98;;
57057;SDS011;55017;52.848;6.748;2023-04-09T04:34:12;163.32;;;154.38;;
57057;SDS011;55017;52.848;6.748;2023-04-09T04:36:38;162.18;;;153.05;;
57057;SDS011;55017;52.848;6.748;2023-04-09T04:39:04;165.50;;;156.55;;
57057;SDS011;55017;52.848;6.748;2023-04-09T04:41:30;164.00;;;155.02;;
57057;SDS011;55017;52.848;6.748;2023-04-09T04:43:56;163.25;;;154.68;;
57057;SDS011;55017;52.848;6.748;2023-04-09T04:46:22;163.15;;;154.57;;
57057;SDS011;55017;52.848;6.748;2023-04-09T04:48:48;157.15;;;149.02;;
57057;SDS011;55017;52.848;6.748;2023-04-09T04:51:14;163.95;;;155.50;;
57057;SDS011;55017;52.848;6.748;2023-04-09T04:53:40;160.93;;;152.52;;
57057;SDS011;55017;52.848;6.748;2023-04-09T04:56:06;162.90;;;153.95;;
57057;SDS011;55017;52.848;6.748;2023-04-09T04:58:32;159.82;;;151.50;;
57057;SDS011;55017;52.848;6.748;2023-04-09T05:00:58;161.65;;;152.88;;
57057;SDS011;55017;52.848;6.748;2023-04-09T05:03:24;160.52;;;152.23;;
57057;SDS011;55017;52.848;6.748;2023-04-09T05:05:50;162.77;;;154.05;;
57057;SDS011;55017;52.848;6.748;2023-04-09T05:08:16;160.07;;;151.77;;
57057;SDS011;55017;52.848;6.748;2023-04-09T05:10:42;166.45;;;157.73;;
57057;SDS011;55017;52.848;6.748;2023-04-09T05:13:09;163.05;;;154.43;;
57057;SDS011;55017;52.848;6.748;2023-04-09T05:15:38;162.15;;;153.65;;
57057;SDS011;55017;52.848;6.748;2023-04-09T05:18:05;161.03;;;152.73;;
57057;SDS011;55017;52.848;6.748;2023-04-09T05:20:31;157.80;;;149.38;;
57057;SDS011;55017;52.848;6.748;2023-04-09T05:22:57;155.55;;;146.73;;
57057;SDS011;55017;52.848;6.748;2023-04-09T05:25:23;160.95;;;152.50;;
57057;SDS011;55017;52.848;6.748;2023-04-09T05:27:49;163.32;;;155.02;;
57057;SDS011;55017;52.848;6.748;2023-04-09T05:30:15;156.55;;;148.50;;
57057;SDS011;55017;52.848;6.748;2023-04-09T05:32:41;160.35;;;152.35;;
57057;SDS011;55017;52.848;6.748;2023-04-09T05:35:08;158.10;;;150.15;;
57057;SDS011;55017;52.848;6.748;2023-04-09T05:37:34;160.80;;;152.82;;
57057;SDS011;55017;52.848;6.748;2023-04-09T05:40:00;161.85;;;153.65;;
57057;SDS011;55017;52.848;6.748;2023-04-09T05:42:26;163.95;;;155.68;;
57057;SDS011;55017;52.848;6.748;2023-04-09T05:44:52;162.35;;;154.07;;
57057;SDS011;55017;52.848;6.748;2023-04-09T05:47:18;160.88;;;152.80;;
57057;SDS011;55017;52.848;6.748;2023-04-09T05:49:44;156.02;;;147.88;;
57057;SDS011;55017;52.848;6.748;2023-04-09T05:52:10;160.32;;;152.07;;
57057;SDS011;55017;52.848;6.748;2023-04-09T05:54:36;154.85;;;146.32;;
57057;SDS011;55017;52.848;6.748;2023-04-09T05:57:02;158.88;;;150.68;;
57057;SDS011;55017;52.848;6.748;2023-04-09T05:59:28;157.02;;;148.65;;
57057;SDS011;55017;52.848;6.748;2023-04-09T06:01:54;155.35;;;147.32;;
57057;SDS011;55017;52.848;6.748;2023-04-09T06:04:20;162.02;;;153.43;;
57057;SDS011;55017;52.848;6.748;2023-04-09T06:06:46;159.80;;;151.45;;
57057;SDS011;55017;52.848;6.748;2023-04-09T06:09:12;157.57;;;149.15;;
57057;SDS011;55017;52.848;6.748;2023-04-09T06:11:38;155.32;;;146.93;;
57057;SDS011;55017;52.848;6.748;2023-04-09T06:14:04;161.23;;;152.77;;
57057;SDS011;55017;52.848;6.748;2023-04-09T06:16:31;162.85;;;154.38;;
57057;SDS011;55017;52.848;6.748;2023-04-09T06:18:57;160.80;;;152.40;;
57057;SDS011;55017;52.848;6.748;2023-04-09T06:21:23;158.25;;;149.57;;
57057;SDS011;55017;52.848;6.748;2023-04-09T06:23:49;159.77;;;151.38;;
57057;SDS011;55017;52.848;6.748;2023-04-09T06:26:17;159.50;;;151.00;;
57057;SDS011;55017;52.848;6.748;2023-04-09T06:28:43;162.40;;;153.55;;
57057;SDS011;55017;52.848;6.748;2023-04-09T06:31:09;164.07;;;155.18;;
57057;SDS011;55017;52.848;6.748;2023-04-09T06:33:35;161.00;;;152.48;;
57057;SDS011;55017;52.848;6.748;2023-04-09T06:36:01;167.68;;;158.75;;
57057;SDS011;55017;52.848;6.748;2023-04-09T06:38:27;163.73;;;155.13;;
57057;SDS011;55017;52.848;6.748;2023-04-09T06:40:54;163.15;;;154.48;;
57057;SDS011;55017;52.848;6.748;2023-04-09T06:43:21;159.52;;;151.20;;
57057;SDS011;55017;52.848;6.748;2023-04-09T06:45:47;162.70;;;154.18;;
57057;SDS011;55017;52.848;6.748;2023-04-09T06:48:13;163.13;;;154.50;;
57057;SDS011;55017;52.848;6.748;2023-04-09T06:50:39;164.88;;;155.82;;
57057;SDS011;55017;52.848;6.748;2023-04-09T06:53:05;166.30;;;157.20;;
57057;SDS011;55017;52.848;6.748;2023-04-09T06:55:31;158.02;;;149.23;;
57057;SDS011;55017;52.848;6.748;2023-04-09T06:57:57;163.63;;;154.60;;
57057;SDS011;55017;52.848;6.748;2023-04-09T07:00:23;159.20;;;150.47;;
57057;SDS011;55017;52.848;6.748;2023-04-09T07:02:50;163.35;;;154.75;;
57057;SDS011;55017;52.848;6.748;2023-04-09T07:05:17;160.02;;;151.32;;
57057;SDS011;55017;52.848;6.748;2023-04-09T07:07:43;164.35;;;155.57;;
57057;SDS011;55017;52.848;6.748;2023-04-09T07:10:09;164.65;;;155.75;;
57057;SDS011;55017;52.848;6.748;2023-04-09T07:12:36;166.07;;;157.07;;
57057;SDS011;55017;52.848;6.748;2023-04-09T07:15:03;163.07;;;154.15;;
57057;SDS011;55017;52.848;6.748;2023-04-09T07:17:29;164.32;;;155.38;;
57057;SDS011;55017;52.848;6.748;2023-04-09T07:19:55;162.85;;;154.02;;
57057;SDS011;55017;52.848;6.748;2023-04-09T07:22:22;164.20;;;155.48;;
57057;SDS011;55017;52.848;6.748;2023-04-09T07:24:48;161.20;;;152.82;;
57057;SDS011;55017;52.848;6.748;2023-04-09T07:29:47;160.82;;;152.15;;
57057;SDS011;55017;52.848;6.748;2023-04-09T07:32:13;160.73;;;152.32;;
57057;SDS011;55017;52.848;6.748;2023-04-09T07:34:40;163.57;;;154.77;;
57057;SDS011;55017;52.848;6.748;2023-04-09T07:37:06;158.77;;;150.23;;
57057;SDS011;55017;52.848;6.748;2023-04-09T07:39:32;158.57;;;149.98;;
57057;SDS011;55017;52.848;6.748;2023-04-09T07:42:01;163.57;;;154.65;;
57057;SDS011;55017;52.848;6.748;2023-04-09T07:44:27;161.25;;;152.68;;
57057;SDS011;55017;52.848;6.748;2023-04-09T07:46:53;163.90;;;155.15;;
57057;SDS011;55017;52.848;6.748;2023-04-09T07:49:19;157.75;;;149.23;;
57057;SDS011;55017;52.848;6.748;2023-04-09T07:51:46;162.50;;;153.70;;
57057;SDS011;55017;52.848;6.748;2023-04-09T07:54:12;164.38;;;155.52;;
57057;SDS011;55017;52.848;6.748;2023-04-09T07:56:38;163.07;;;154.45;;
57057;SDS011;55017;52.848;6.748;2023-04-09T07:59:04;163.98;;;155.20;;
57057;SDS011;55017;52.848;6.748;2023-04-09T08:01:30;164.10;;;155.07;;
57057;SDS011;55017;52.848;6.748;2023-04-09T08:03:56;165.50;;;156.90;;
57057;SDS011;55017;52.848;6.748;2023-04-09T08:06:22;160.02;;;151.35;;
57057;SDS011;55017;52.848;6.748;2023-04-09T08:08:48;160.77;;;152.38;;
57057;SDS011;55017;52.848;6.748;2023-04-09T08:11:14;161.43;;;152.93;;
57057;SDS011;55017;52.848;6.748;2023-04-09T08:13:42;164.35;;;155.70;;
57057;SDS011;55017;52.848;6.748;2023-04-09T08:16:08;166.68;;;157.98;;
57057;SDS011;55017;52.848;6.748;2023-04-09T08:18:34;161.20;;;152.75;;
57057;SDS011;55017;52.848;6.748;2023-04-09T08:21:03;160.70;;;152.15;;
57057;SDS011;55017;52.848;6.748;2023-04-09T08:25:54;162.05;;;153.50;;
57057;SDS011;55017;52.848;6.748;2023-04-09T08:28:20;161.63;;;153.18;;
57057;SDS011;55017;52.848;6.748;2023-04-09T08:30:47;164.98;;;156.38;;
57057;SDS011;55017;52.848;6.748;2023-04-09T08:33:13;161.63;;;152.80;;
57057;SDS011;55017;52.848;6.748;2023-04-09T08:35:40;158.20;;;149.95;;
57057;SDS011;55017;52.848;6.748;2023-04-09T08:38:06;162.85;;;154.48;;
57057;SDS011;55017;52.848;6.748;2023-04-09T08:40:35;163.13;;;154.70;;
57057;SDS011;55017;52.848;6.748;2023-04-09T08:43:03;160.38;;;152.10;;
57057;SDS011;55017;52.848;6.748;2023-04-09T08:45:29;160.77;;;152.60;;
57057;SDS011;55017;52.848;6.748;2023-04-09T08:47:55;154.48;;;146.68;;
57057;SDS011;55017;52.848;6.748;2023-04-09T08:50:26;154.05;;;146.45;;
57057;SDS011;55017;52.848;6.748;2023-04-09T08:52:52;156.90;;;149.02;;
57057;SDS011;55017;52.848;6.748;2023-04-09T08:55:19;155.48;;;147.80;;
57057;SDS011;55017;52.848;6.748;2023-04-09T08:57:45;157.20;;;149.43;;
57057;SDS011;55017;52.848;6.748;2023-04-09T09:00:11;161.30;;;153.38;;
57057;SDS011;55017;52.848;6.748;2023-04-09T09:02:37;156.57;;;148.85;;
57057;SDS011;55017;52.848;6.748;2023-04-09T09:05:04;153.02;;;145.30;;
57057;SDS011;55017;52.848;6.748;2023-04-09T09:07:30;156.43;;;148.80;;
57057;SDS011;55017;52.848;6.748;2023-04-09T09:09:58;155.70;;;148.32;;
57057;SDS011;55017;52.848;6.748;2023-04-09T09:12:34;156.02;;;148.43;;
57057;SDS011;55017;52.848;6.748;2023-04-09T09:15:00;155.13;;;147.57;;
57057;SDS011;55017;52.848;6.748;2023-04-09T09:17:26;160.15;;;152.48;;
57057;SDS011;55017;52.848;6.748;2023-04-09T09:19:52;156.93;;;149.63;;
57057;SDS011;55017;52.848;6.748;2023-04-09T09:22:18;154.98;;;147.45;;
57057;SDS011;55017;52.848;6.748;2023-04-09T09:24:48;156.55;;;149.15;;
57057;SDS011;55017;52.848;6.748;2023-04-09T09:27:29;153.68;;;146.52;;
57057;SDS011;55017;52.848;6.748;2023-04-09T09:29:56;153.63;;;146.25;;
57057;SDS011;55017;52.848;6.748;2023-04-09T09:32:22;156.93;;;149.20;;
57057;SDS011;55017;52.848;6.748;2023-04-09T09:35:05;156.65;;;149.23;;
57057;SDS011;55017;52.848;6.748;2023-04-09T09:37:31;156.45;;;149.07;;
57057;SDS011;55017;52.848;6.748;2023-04-09T09:39:58;155.48;;;147.95;;
57057;SDS011;55017;52.848;6.748;2023-04-09T09:42:24;155.65;;;147.95;;
57057;SDS011;55017;52.848;6.748;2023-04-09T09:44:51;152.93;;;145.50;;
57057;SDS011;55017;52.848;6.748;2023-04-09T09:47:18;153.98;;;146.63;;
57057;SDS011;55017;52.848;6.748;2023-04-09T09:49:46;154.18;;;146.77;;
57057;SDS011;55017;52.848;6.748;2023-04-09T09:52:13;151.40;;;144.40;;
57057;SDS011;55017;52.848;6.748;2023-04-09T09:54:39;151.45;;;144.40;;
57057;SDS011;55017;52.848;6.748;2023-04-09T09:57:06;153.65;;;146.38;;
57057;SDS011;55017;52.848;6.748;2023-04-09T09:59:36;151.75;;;144.50;;
57057;SDS011;55017;52.848;6.748;2023-04-09T10:02:03;153.45;;;146.18;;
57057;SDS011;55017;52.848;6.748;2023-04-09T10:04:31;149.77;;;142.85;;
57057;SDS011;55017;52.848;6.748;2023-04-09T10:06:58;151.07;;;143.98;;
57057;SDS011;55017;52.848;6.748;2023-04-09T10:09:27;154.00;;;146.70;;
57057;SDS011;55017;52.848;6.748;2023-04-09T10:11:53;157.48;;;150.20;;
57057;SDS011;55017;52.848;6.748;2023-04-09T10:14:20;153.48;;;146.23;;
57057;SDS011;55017;52.848;6.748;2023-04-09T10:16:46;147.15;;;140.15;;
57057;SDS011;55017;52.848;6.748;2023-04-09T10:19:12;152.77;;;145.68;;
57057;SDS011;55017;52.848;6.748;2023-04-09T10:21:41;150.70;;;143.77;;
57057;SDS011;55017;52.848;6.748;2023-04-09T10:24:08;152.27;;;145.15;;
57057;SDS011;55017;52.848;6.748;2023-04-09T10:26:34;152.10;;;144.77;;
57057;SDS011;55017;52.848;6.748;2023-04-09T10:32:02;153.32;;;146.13;;
57057;SDS011;55017;52.848;6.748;2023-04-09T10:34:23;149.70;;;143.00;;
57057;SDS011;55017;52.848;6.748;2023-04-09T10:36:52;145.85;;;139.45;;
57057;SDS011;55017;52.848;6.748;2023-04-09T10:39:20;143.50;;;137.20;;
57057;SDS011;55017;52.848;6.748;2023-04-09T10:41:47;146.65;;;139.90;;
57057;SDS011;55017;52.848;6.748;2023-04-09T10:46:46;152.60;;;145.82;;
57057;SDS011;55017;52.848;6.748;2023-04-09T10:49:15;146.63;;;140.10;;
57057;SDS011;55017;52.848;6.748;2023-04-09T10:51:46;146.73;;;140.30;;
57057;SDS011;55017;52.848;6.748;2023-04-09T10:59:33;141.32;;;135.23;;
57057;SDS011;55017;52.848;6.748;2023-04-09T11:01:59;144.50;;;138.35;;
57057;SDS011;55017;52.848;6.748;2023-04-09T11:04:28;146.43;;;140.20;;
57057;SDS011;55017;52.848;6.748;2023-04-09T11:06:59;146.98;;;140.57;;
57057;SDS011;55017;52.848;6.748;2023-04-09T11:09:25;144.95;;;138.60;;
57057;SDS011;55017;52.848;6.748;2023-04-09T11:11:52;143.63;;;137.23;;
57057;SDS011;55017;52.848;6.748;2023-04-09T11:14:18;141.15;;;135.25;;
57057;SDS011;55017;52.848;6.748;2023-04-09T11:16:46;145.13;;;138.88;;
57057;SDS011;55017;52.848;6.748;2023-04-09T11:19:12;139.90;;;134.00;;
57057;SDS011;55017;52.848;6.748;2023-04-09T11:21:40;144.20;;;137.88;;
57057;SDS011;55017;52.848;6.748;2023-04-09T11:24:13;146.27;;;139.98;;
57057;SDS011;55017;52.848;6.748;2023-04-09T11:26:39;145.45;;;139.05;;
57057;SDS011;55017;52.848;6.748;2023-04-09T11:29:06;142.90;;;136.60;;
57057;SDS011;55017;52.848;6.748;2023-04-09T11:31:33;141.68;;;135.40;;
57057;SDS011;55017;52.848;6.748;2023-04-09T11:33:59;146.50;;;140.20;;
57057;SDS011;55017;52.848;6.748;2023-04-09T11:36:25;141.93;;;135.57;;
57057;SDS011;55017;52.848;6.748;2023-04-09T11:38:54;147.40;;;141.10;;
57057;SDS011;55017;52.848;6.748;2023-04-09T11:44:00;144.15;;;138.05;;
57057;SDS011;55017;52.848;6.748;2023-04-09T11:46:27;142.80;;;136.70;;
57057;SDS011;55017;52.848;6.748;2023-04-09T11:48:53;143.30;;;137.20;;
57057;SDS011;55017;52.848;6.748;2023-04-09T11:51:20;144.57;;;138.43;;
57057;SDS011;55017;52.848;6.748;2023-04-09T11:53:48;141.00;;;134.90;;
57057;SDS011;55017;52.848;6.748;2023-04-09T11:56:15;140.32;;;134.50;;
57057;SDS011;55017;52.848;6.748;2023-04-09T11:58:44;143.30;;;137.13;;
57057;SDS011;55017;52.848;6.748;2023-04-09T12:01:14;148.70;;;142.25;;
57057;SDS011;55017;52.848;6.748;2023-04-09T12:03:40;144.77;;;138.45;;
57057;SDS011;55017;52.848;6.748;2023-04-09T12:06:06;143.90;;;137.77;;
57057;SDS011;55017;52.848;6.748;2023-04-09T12:08:35;144.48;;;138.20;;
57057;SDS011;55017;52.848;6.748;2023-04-09T12:11:08;144.07;;;137.77;;
57057;SDS011;55017;52.848;6.748;2023-04-09T12:13:34;141.02;;;134.90;;
57057;SDS011;55017;52.848;6.748;2023-04-09T12:16:00;144.80;;;138.50;;
57057;SDS011;55017;52.848;6.748;2023-04-09T12:18:27;144.90;;;138.75;;
57057;SDS011;55017;52.848;6.748;2023-04-09T12:20:53;142.38;;;136.27;;
57057;SDS011;55017;52.848;6.748;2023-04-09T12:23:19;143.98;;;137.82;;
57057;SDS011;55017;52.848;6.748;2023-04-09T12:25:45;141.75;;;135.75;;
57057;SDS011;55017;52.848;6.748;2023-04-09T12:28:12;138.98;;;132.95;;
57057;SDS011;55017;52.848;6.748;2023-04-09T12:30:39;139.50;;;133.73;;
57057;SDS011;55017;52.848;6.748;2023-04-09T12:33:05;138.45;;;132.75;;
57057;SDS011;55017;52.848;6.748;2023-04-09T12:35:31;136.27;;;130.38;;
57057;SDS011;55017;52.848;6.748;2023-04-09T12:37:58;137.80;;;132.02;;
57057;SDS011;55017;52.848;6.748;2023-04-09T12:40:25;138.25;;;132.38;;
57057;SDS011;55017;52.848;6.748;2023-04-09T12:42:51;134.85;;;129.25;;
57057;SDS011;55017;52.848;6.748;2023-04-09T12:45:18;137.07;;;131.30;;
57057;SDS011;55017;52.848;6.748;2023-04-09T12:47:44;137.48;;;131.82;;
57057;SDS011;55017;52.848;6.748;2023-04-09T12:50:11;135.20;;;129.70;;
57057;SDS011;55017;52.848;6.748;2023-04-09T12:52:37;136.80;;;131.30;;
57057;SDS011;55017;52.848;6.748;2023-04-09T12:55:04;137.02;;;131.32;;
57057;SDS011;55017;52.848;6.748;2023-04-09T12:57:30;137.73;;;131.98;;
57057;SDS011;55017;52.848;6.748;2023-04-09T12:59:56;138.27;;;132.63;;
57057;SDS011;55017;52.848;6.748;2023-04-09T13:02:22;134.45;;;128.98;;
57057;SDS011;55017;52.848;6.748;2023-04-09T13:04:49;138.32;;;132.73;;
57057;SDS011;55017;52.848;6.748;2023-04-09T13:07:16;138.98;;;133.32;;
57057;SDS011;55017;52.848;6.748;2023-04-09T13:09:46;139.02;;;133.23;;
57057;SDS011;55017;52.848;6.748;2023-04-09T13:12:14;133.32;;;127.97;;
57057;SDS011;55017;52.848;6.748;2023-04-09T13:14:40;137.73;;;131.73;;
57057;SDS011;55017;52.848;6.748;2023-04-09T13:17:06;134.50;;;128.88;;
57057;SDS011;55017;52.848;6.748;2023-04-09T13:19:32;135.15;;;129.45;;
57057;SDS011;55017;52.848;6.748;2023-04-09T13:21:58;135.57;;;130.07;;
57057;SDS011;55017;52.848;6.748;2023-04-09T13:24:24;136.82;;;131.23;;
57057;SDS011;55017;52.848;6.748;2023-04-09T13:26:51;131.48;;;126.22;;
57057;SDS011;55017;52.848;6.748;2023-04-09T13:29:18;134.25;;;128.80;;
57057;SDS011;55017;52.848;6.748;2023-04-09T13:31:44;133.88;;;128.57;;
57057;SDS011;55017;52.848;6.748;2023-04-09T13:34:10;134.43;;;128.93;;
57057;SDS011;55017;52.848;6.748;2023-04-09T13:36:36;132.20;;;126.80;;
57057;SDS011;55017;52.848;6.748;2023-04-09T13:39:02;131.82;;;126.53;;
57057;SDS011;55017;52.848;6.748;2023-04-09T13:41:31;131.10;;;125.95;;
57057;SDS011;55017;52.848;6.748;2023-04-09T13:43:58;133.23;;;127.93;;
57057;SDS011;55017;52.848;6.748;2023-04-09T13:46:24;131.48;;;126.38;;
57057;SDS011;55017;52.848;6.748;2023-04-09T13:48:51;129.27;;;124.28;;
57057;SDS011;55017;52.848;6.748;2023-04-09T13:51:18;131.05;;;125.82;;
57057;SDS011;55017;52.848;6.748;2023-04-09T13:53:44;131.73;;;126.53;;
57057;SDS011;55017;52.848;6.748;2023-04-09T13:56:12;130.55;;;125.35;;
57057;SDS011;55017;52.848;6.748;2023-04-09T13:58:38;131.88;;;126.60;;
57057;SDS011;55017;52.848;6.748;2023-04-09T14:01:05;130.18;;;124.97;;
57057;SDS011;55017;52.848;6.748;2023-04-09T14:03:31;132.90;;;127.60;;
57057;SDS011;55017;52.848;6.748;2023-04-09T14:05:57;134.75;;;129.32;;
57057;SDS011;55017;52.848;6.748;2023-04-09T14:08:23;133.32;;;128.02;;
57057;SDS011;55017;52.848;6.748;2023-04-09T14:10:49;131.43;;;126.15;;
57057;SDS011;55017;52.848;6.748;2023-04-09T14:13:15;135.43;;;129.95;;
57057;SDS011;55017;52.848;6.748;2023-04-09T14:15:41;132.15;;;126.75;;
57057;SDS011;55017;52.848;6.748;2023-04-09T14:18:09;133.07;;;127.70;;
57057;SDS011;55017;52.848;6.748;2023-04-09T14:20:35;133.07;;;127.87;;
57057;SDS011;55017;52.848;6.748;2023-04-09T14:23:02;133.43;;;128.23;;